sensor_id;sensor_type;location;lat;lon;timestamp;P1;durP1;ratioP1;P2;durP2;ratioP2
24277;SDS011;12394;42.692;23.314;2023-04-01T00:01:43;29.00;;;17.63;;
24277;SDS011;12394;42.692;23.314;2023-04-01T00:04:08;28.70;;;16.67;;
24277;SDS011;12394;42.692;23.314;2023-04-01T00:06:34;29.33;;;17.20;;
24277;SDS011;12394;42.692;23.314;2023-04-01T00:09:00;36.43;;;16.87;;
24277;SDS011;12394;42.692;23.314;2023-04-01T00:11:25;33.80;;;16.30;;
24277;SDS011;12394;42.692;23.314;2023-04-01T00:13:52;25.20;;;14.13;;
24277;SDS011;12394;42.692;23.314;2023-04-01T00:16:18;28.13;;;15.00;;
24277;SDS011;12394;42.692;23.314;2023-04-01T00:18:43;34.93;;;16.47;;
24277;SDS011;12394;42.692;23.314;2023-04-01T00:21:09;30.23;;;16.17;;
24277;SDS011;12394;42.692;23.314;2023-04-01T00:23:34;25.90;;;13.87;;
24277;SDS011;12394;42.692;23.314;2023-04-01T00:26:00;25.97;;;14.33;;
24277;SDS011;12394;42.692;23.314;2023-04-01T00:28:27;26.17;;;12.67;;
24277;SDS011;12394;42.692;23.314;2023-04-01T00:30:53;23.67;;;12.00;;
24277;SDS011;12394;42.692;23.314;2023-04-01T00:33:18;21.80;;;12.70;;
24277;SDS011;12394;42.692;23.314;2023-04-01T00:35:45;18.37;;;11.30;;
24277;SDS011;12394;42.692;23.314;2023-04-01T00:38:11;21.23;;;10.47;;
24277;SDS011;12394;42.692;23.314;2023-04-01T00:40:42;21.90;;;11.30;;
24277;SDS011;12394;42.692;23.314;2023-04-01T00:43:13;18.60;;;11.23;;
24277;SDS011;12394;42.692;23.314;2023-04-01T00:45:44;20.30;;;11.00;;
24277;SDS011;12394;42.692;23.314;2023-04-01T00:48:11;19.90;;;11.73;;
24277;SDS011;12394;42.692;23.314;2023-04-01T00:50:42;17.77;;;11.20;;
24277;SDS011;12394;42.692;23.314;2023-04-01T00:53:10;23.13;;;12.50;;
24277;SDS011;12394;42.692;23.314;2023-04-01T00:55:39;18.27;;;11.93;;
24277;SDS011;12394;42.692;23.314;2023-04-01T00:58:09;17.40;;;11.77;;
24277;SDS011;12394;42.692;23.314;2023-04-01T01:00:39;17.33;;;12.07;;
24277;SDS011;12394;42.692;23.314;2023-04-01T01:03:05;22.03;;;12.57;;
24277;SDS011;12394;42.692;23.314;2023-04-01T01:05:38;27.37;;;12.60;;
24277;SDS011;12394;42.692;23.314;2023-04-01T01:10:48;22.23;;;11.90;;
24277;SDS011;12394;42.692;23.314;2023-04-01T01:37:14;14.67;;;8.40;;
24277;SDS011;12394;42.692;23.314;2023-04-01T01:39:42;16.77;;;9.23;;
24277;SDS011;12394;42.692;23.314;2023-04-01T01:42:11;21.87;;;9.00;;
24277;SDS011;12394;42.692;23.314;2023-04-01T01:44:40;16.57;;;8.80;;
24277;SDS011;12394;42.692;23.314;2023-04-01T01:47:09;16.87;;;8.77;;
24277;SDS011;12394;42.692;23.314;2023-04-01T01:49:35;14.37;;;8.30;;
24277;SDS011;12394;42.692;23.314;2023-04-01T01:52:04;15.07;;;7.17;;
24277;SDS011;12394;42.692;23.314;2023-04-01T01:54:29;11.73;;;8.13;;
24277;SDS011;12394;42.692;23.314;2023-04-01T01:56:57;15.80;;;7.17;;
24277;SDS011;12394;42.692;23.314;2023-04-01T01:59:30;12.50;;;7.17;;
24277;SDS011;12394;42.692;23.314;2023-04-01T02:01:57;16.60;;;8.27;;
24277;SDS011;12394;42.692;23.314;2023-04-01T02:04:24;14.03;;;7.97;;
24277;SDS011;12394;42.692;23.314;2023-04-01T02:06:56;16.70;;;8.07;;
24277;SDS011;12394;42.692;23.314;2023-04-01T02:09:26;17.37;;;6.77;;
24277;SDS011;12394;42.692;23.314;2023-04-01T02:11:53;18.27;;;7.43;;
24277;SDS011;12394;42.692;23.314;2023-04-01T02:14:23;22.93;;;7.90;;
24277;SDS011;12394;42.692;23.314;2023-04-01T02:19:24;13.33;;;8.60;;
24277;SDS011;12394;42.692;23.314;2023-04-01T02:21:59;16.47;;;6.93;;
24277;SDS011;12394;42.692;23.314;2023-04-01T02:24:28;15.73;;;8.07;;
24277;SDS011;12394;42.692;23.314;2023-04-01T02:26:58;12.07;;;7.23;;
24277;SDS011;12394;42.692;23.314;2023-04-01T02:29:25;12.60;;;6.60;;
24277;SDS011;12394;42.692;23.314;2023-04-01T02:31:51;12.13;;;7.00;;
24277;SDS011;12394;42.692;23.314;2023-04-01T02:34:19;15.30;;;6.83;;
24277;SDS011;12394;42.692;23.314;2023-04-01T02:36:46;15.43;;;6.97;;
24277;SDS011;12394;42.692;23.314;2023-04-01T02:39:13;12.87;;;7.63;;
24277;SDS011;12394;42.692;23.314;2023-04-01T02:41:42;13.27;;;7.60;;
24277;SDS011;12394;42.692;23.314;2023-04-01T02:44:09;14.63;;;7.60;;
24277;SDS011;12394;42.692;23.314;2023-04-01T02:46:36;13.30;;;8.13;;
24277;SDS011;12394;42.692;23.314;2023-04-01T02:49:02;14.10;;;7.57;;
24277;SDS011;12394;42.692;23.314;2023-04-01T02:51:27;10.30;;;7.50;;
24277;SDS011;12394;42.692;23.314;2023-04-01T02:53:53;22.70;;;8.00;;
24277;SDS011;12394;42.692;23.314;2023-04-01T02:56:18;18.50;;;8.00;;
24277;SDS011;12394;42.692;23.314;2023-04-01T02:58:45;13.90;;;8.27;;
24277;SDS011;12394;42.692;23.314;2023-04-01T03:01:11;16.53;;;8.57;;
24277;SDS011;12394;42.692;23.314;2023-04-01T03:03:36;14.00;;;8.90;;
24277;SDS011;12394;42.692;23.314;2023-04-01T03:06:06;17.63;;;8.73;;
24277;SDS011;12394;42.692;23.314;2023-04-01T03:08:33;19.33;;;9.17;;
24277;SDS011;12394;42.692;23.314;2023-04-01T03:10:59;23.63;;;9.60;;
24277;SDS011;12394;42.692;23.314;2023-04-01T03:13:25;17.07;;;9.40;;
24277;SDS011;12394;42.692;23.314;2023-04-01T03:15:50;13.77;;;9.10;;
24277;SDS011;12394;42.692;23.314;2023-04-01T03:18:16;20.77;;;10.13;;
24277;SDS011;12394;42.692;23.314;2023-04-01T03:20:41;19.93;;;10.37;;
24277;SDS011;12394;42.692;23.314;2023-04-01T03:23:07;21.07;;;10.10;;
24277;SDS011;12394;42.692;23.314;2023-04-01T03:25:32;24.67;;;11.60;;
24277;SDS011;12394;42.692;23.314;2023-04-01T03:27:58;22.43;;;10.30;;
24277;SDS011;12394;42.692;23.314;2023-04-01T03:30:24;19.37;;;11.10;;
24277;SDS011;12394;42.692;23.314;2023-04-01T03:32:50;19.20;;;10.93;;
24277;SDS011;12394;42.692;23.314;2023-04-01T03:35:16;19.27;;;10.47;;
24277;SDS011;12394;42.692;23.314;2023-04-01T03:37:41;22.23;;;11.03;;
24277;SDS011;12394;42.692;23.314;2023-04-01T03:40:07;18.77;;;9.97;;
24277;SDS011;12394;42.692;23.314;2023-04-01T03:42:33;19.97;;;11.23;;
24277;SDS011;12394;42.692;23.314;2023-04-01T03:44:58;25.30;;;12.83;;
24277;SDS011;12394;42.692;23.314;2023-04-01T03:47:24;28.67;;;14.83;;
24277;SDS011;12394;42.692;23.314;2023-04-01T03:49:49;24.63;;;11.00;;
24277;SDS011;12394;42.692;23.314;2023-04-01T03:52:15;22.80;;;11.67;;
24277;SDS011;12394;42.692;23.314;2023-04-01T03:54:40;27.23;;;14.63;;
24277;SDS011;12394;42.692;23.314;2023-04-01T03:57:05;28.37;;;15.53;;
24277;SDS011;12394;42.692;23.314;2023-04-01T03:59:31;25.87;;;13.73;;
24277;SDS011;12394;42.692;23.314;2023-04-01T04:01:57;23.63;;;13.23;;
24277;SDS011;12394;42.692;23.314;2023-04-01T04:04:22;23.90;;;12.53;;
24277;SDS011;12394;42.692;23.314;2023-04-01T04:06:47;25.53;;;10.90;;
24277;SDS011;12394;42.692;23.314;2023-04-01T04:09:13;21.13;;;11.57;;
24277;SDS011;12394;42.692;23.314;2023-04-01T04:11:38;23.17;;;11.60;;
24277;SDS011;12394;42.692;23.314;2023-04-01T04:14:04;20.83;;;10.53;;
24277;SDS011;12394;42.692;23.314;2023-04-01T04:16:30;24.63;;;10.90;;
24277;SDS011;12394;42.692;23.314;2023-04-01T04:18:56;21.73;;;10.77;;
24277;SDS011;12394;42.692;23.314;2023-04-01T04:21:21;14.87;;;9.60;;
24277;SDS011;12394;42.692;23.314;2023-04-01T04:23:47;19.63;;;10.60;;
24277;SDS011;12394;42.692;23.314;2023-04-01T04:26:13;14.73;;;9.30;;
24277;SDS011;12394;42.692;23.314;2023-04-01T04:28:40;26.63;;;11.03;;
24277;SDS011;12394;42.692;23.314;2023-04-01T04:31:05;25.03;;;10.60;;
24277;SDS011;12394;42.692;23.314;2023-04-01T04:33:32;14.33;;;9.23;;
24277;SDS011;12394;42.692;23.314;2023-04-01T04:35:58;17.57;;;9.03;;
24277;SDS011;12394;42.692;23.314;2023-04-01T04:38:25;20.43;;;8.70;;
24277;SDS011;12394;42.692;23.314;2023-04-01T04:40:50;20.90;;;8.80;;
24277;SDS011;12394;42.692;23.314;2023-04-01T04:43:16;18.77;;;8.63;;
24277;SDS011;12394;42.692;23.314;2023-04-01T04:45:43;19.37;;;8.60;;
24277;SDS011;12394;42.692;23.314;2023-04-01T04:48:09;23.10;;;9.37;;
24277;SDS011;12394;42.692;23.314;2023-04-01T04:50:38;20.63;;;9.73;;
24277;SDS011;12394;42.692;23.314;2023-04-01T04:53:05;20.10;;;8.90;;
24277;SDS011;12394;42.692;23.314;2023-04-01T04:55:30;17.73;;;7.30;;
24277;SDS011;12394;42.692;23.314;2023-04-01T04:57:57;15.10;;;7.33;;
24277;SDS011;12394;42.692;23.314;2023-04-01T05:00:23;19.87;;;7.83;;
24277;SDS011;12394;42.692;23.314;2023-04-01T05:02:48;15.23;;;9.17;;
24277;SDS011;12394;42.692;23.314;2023-04-01T05:05:13;25.23;;;14.70;;
24277;SDS011;12394;42.692;23.314;2023-04-01T05:07:39;16.97;;;7.80;;
24277;SDS011;12394;42.692;23.314;2023-04-01T05:10:05;10.53;;;6.23;;
24277;SDS011;12394;42.692;23.314;2023-04-01T05:12:30;16.17;;;7.77;;
24277;SDS011;12394;42.692;23.314;2023-04-01T05:14:57;14.93;;;6.83;;
24277;SDS011;12394;42.692;23.314;2023-04-01T05:17:23;12.03;;;6.30;;
24277;SDS011;12394;42.692;23.314;2023-04-01T05:19:48;28.13;;;13.27;;
24277;SDS011;12394;42.692;23.314;2023-04-01T05:22:13;15.97;;;8.30;;
24277;SDS011;12394;42.692;23.314;2023-04-01T05:24:39;17.70;;;7.27;;
24277;SDS011;12394;42.692;23.314;2023-04-01T05:27:04;12.67;;;6.27;;
24277;SDS011;12394;42.692;23.314;2023-04-01T05:29:30;12.23;;;6.57;;
24277;SDS011;12394;42.692;23.314;2023-04-01T05:31:55;11.03;;;6.53;;
24277;SDS011;12394;42.692;23.314;2023-04-01T05:34:20;19.30;;;6.43;;
24277;SDS011;12394;42.692;23.314;2023-04-01T05:36:46;15.60;;;5.80;;
24277;SDS011;12394;42.692;23.314;2023-04-01T05:39:11;19.90;;;9.70;;
24277;SDS011;12394;42.692;23.314;2023-04-01T05:41:37;15.53;;;8.50;;
24277;SDS011;12394;42.692;23.314;2023-04-01T05:44:03;15.00;;;7.90;;
24277;SDS011;12394;42.692;23.314;2023-04-01T05:46:30;15.40;;;6.03;;
24277;SDS011;12394;42.692;23.314;2023-04-01T05:48:55;9.87;;;6.07;;
24277;SDS011;12394;42.692;23.314;2023-04-01T05:51:21;10.53;;;5.50;;
24277;SDS011;12394;42.692;23.314;2023-04-01T05:53:47;9.13;;;5.80;;
24277;SDS011;12394;42.692;23.314;2023-04-01T05:56:12;13.60;;;6.20;;
24277;SDS011;12394;42.692;23.314;2023-04-01T05:58:38;11.83;;;5.77;;
24277;SDS011;12394;42.692;23.314;2023-04-01T06:01:05;11.30;;;5.40;;
24277;SDS011;12394;42.692;23.314;2023-04-01T06:03:35;13.00;;;5.63;;
24277;SDS011;12394;42.692;23.314;2023-04-01T06:06:00;10.77;;;5.37;;
24277;SDS011;12394;42.692;23.314;2023-04-01T06:08:26;9.90;;;4.87;;
24277;SDS011;12394;42.692;23.314;2023-04-01T06:16:10;12.43;;;4.80;;
24277;SDS011;12394;42.692;23.314;2023-04-01T06:21:37;11.47;;;4.70;;
24277;SDS011;12394;42.692;23.314;2023-04-01T06:24:27;14.20;;;4.97;;
24277;SDS011;12394;42.692;23.314;2023-04-01T06:30:10;11.67;;;4.70;;
24277;SDS011;12394;42.692;23.314;2023-04-01T06:33:17;14.20;;;4.73;;
24277;SDS011;12394;42.692;23.314;2023-04-01T06:36:06;10.93;;;5.40;;
24277;SDS011;12394;42.692;23.314;2023-04-01T06:39:02;11.53;;;5.40;;
24277;SDS011;12394;42.692;23.314;2023-04-01T06:49:49;12.63;;;6.07;;
24277;SDS011;12394;42.692;23.314;2023-04-01T07:01:06;10.27;;;6.00;;
24277;SDS011;12394;42.692;23.314;2023-04-01T07:03:42;10.47;;;5.47;;
24277;SDS011;12394;42.692;23.314;2023-04-01T07:06:30;15.97;;;5.50;;
24277;SDS011;12394;42.692;23.314;2023-04-01T07:09:01;14.60;;;7.10;;
24277;SDS011;12394;42.692;23.314;2023-04-01T07:11:31;8.30;;;5.60;;
24277;SDS011;12394;42.692;23.314;2023-04-01T07:19:50;10.60;;;5.77;;
24277;SDS011;12394;42.692;23.314;2023-04-01T07:24:55;13.03;;;5.10;;
24277;SDS011;12394;42.692;23.314;2023-04-01T07:27:26;12.67;;;5.50;;
24277;SDS011;12394;42.692;23.314;2023-04-01T07:29:51;12.30;;;5.90;;
24277;SDS011;12394;42.692;23.314;2023-04-01T07:51:15;14.87;;;6.27;;
24277;SDS011;12394;42.692;23.314;2023-04-01T08:05:40;14.67;;;8.30;;
24277;SDS011;12394;42.692;23.314;2023-04-01T08:16:04;16.30;;;9.37;;
24277;SDS011;12394;42.692;23.314;2023-04-01T08:21:10;20.30;;;7.67;;
24277;SDS011;12394;42.692;23.314;2023-04-01T08:23:46;16.10;;;8.13;;
24277;SDS011;12394;42.692;23.314;2023-04-01T08:26:26;19.87;;;10.03;;
24277;SDS011;12394;42.692;23.314;2023-04-01T08:29:02;14.47;;;5.87;;
24277;SDS011;12394;42.692;23.314;2023-04-01T08:31:30;12.00;;;5.50;;
24277;SDS011;12394;42.692;23.314;2023-04-01T08:34:17;7.93;;;5.23;;
24277;SDS011;12394;42.692;23.314;2023-04-01T08:36:51;17.97;;;6.00;;
24277;SDS011;12394;42.692;23.314;2023-04-01T08:39:31;16.80;;;6.57;;
24277;SDS011;12394;42.692;23.314;2023-04-01T08:42:04;13.17;;;5.07;;
24277;SDS011;12394;42.692;23.314;2023-04-01T08:47:42;15.73;;;8.03;;
24277;SDS011;12394;42.692;23.314;2023-04-01T08:50:26;9.13;;;5.53;;
24277;SDS011;12394;42.692;23.314;2023-04-01T08:56:00;16.50;;;6.47;;
24277;SDS011;12394;42.692;23.314;2023-04-01T09:01:33;6.93;;;4.50;;
24277;SDS011;12394;42.692;23.314;2023-04-01T09:28:36;14.37;;;5.47;;
24277;SDS011;12394;42.692;23.314;2023-04-01T09:34:46;10.40;;;4.17;;
24277;SDS011;12394;42.692;23.314;2023-04-01T09:46:19;12.73;;;4.43;;
24277;SDS011;12394;42.692;23.314;2023-04-01T10:27:21;11.27;;;4.70;;
24277;SDS011;12394;42.692;23.314;2023-04-01T10:36:13;9.47;;;5.27;;
24277;SDS011;12394;42.692;23.314;2023-04-01T10:38:56;10.10;;;4.17;;
24277;SDS011;12394;42.692;23.314;2023-04-01T10:50:24;11.47;;;4.20;;
24277;SDS011;12394;42.692;23.314;2023-04-01T10:58:40;11.00;;;4.60;;
24277;SDS011;12394;42.692;23.314;2023-04-01T11:24:21;12.53;;;5.13;;
24277;SDS011;12394;42.692;23.314;2023-04-01T11:32:39;9.63;;;4.53;;
24277;SDS011;12394;42.692;23.314;2023-04-01T11:40:47;7.57;;;2.53;;
24277;SDS011;12394;42.692;23.314;2023-04-01T11:43:29;5.40;;;2.53;;
24277;SDS011;12394;42.692;23.314;2023-04-01T11:46:05;6.93;;;2.83;;
24277;SDS011;12394;42.692;23.314;2023-04-01T11:51:43;15.87;;;4.27;;
24277;SDS011;12394;42.692;23.314;2023-04-01T12:05:18;7.20;;;3.93;;
24277;SDS011;12394;42.692;23.314;2023-04-01T12:26:52;18.30;;;5.23;;
24277;SDS011;12394;42.692;23.314;2023-04-01T12:35:21;9.03;;;4.17;;
24277;SDS011;12394;42.692;23.314;2023-04-01T12:37:52;9.73;;;4.87;;
24277;SDS011;12394;42.692;23.314;2023-04-01T12:43:45;9.77;;;3.97;;
24277;SDS011;12394;42.692;23.314;2023-04-01T12:46:20;7.63;;;3.53;;
24277;SDS011;12394;42.692;23.314;2023-04-01T12:51:41;6.50;;;4.07;;
24277;SDS011;12394;42.692;23.314;2023-04-01T13:34:24;7.70;;;3.97;;
24277;SDS011;12394;42.692;23.314;2023-04-01T13:37:27;10.23;;;3.73;;
24277;SDS011;12394;42.692;23.314;2023-04-01T13:40:26;7.73;;;3.60;;
24277;SDS011;12394;42.692;23.314;2023-04-01T13:43:10;4.53;;;3.30;;
24277;SDS011;12394;42.692;23.314;2023-04-01T13:58:00;2.80;;;2.23;;
24277;SDS011;12394;42.692;23.314;2023-04-01T14:12:29;2.07;;;1.43;;
24277;SDS011;12394;42.692;23.314;2023-04-01T14:18:07;3.53;;;1.83;;
24277;SDS011;12394;42.692;23.314;2023-04-01T14:40:04;7.90;;;3.50;;
24277;SDS011;12394;42.692;23.314;2023-04-01T14:51:29;6.97;;;3.70;;
24277;SDS011;12394;42.692;23.314;2023-04-01T14:56:38;6.43;;;3.80;;
24277;SDS011;12394;42.692;23.314;2023-04-01T15:01:58;5.80;;;4.23;;
24277;SDS011;12394;42.692;23.314;2023-04-01T15:07:05;9.90;;;4.83;;
24277;SDS011;12394;42.692;23.314;2023-04-01T15:12:59;9.67;;;5.00;;
24277;SDS011;12394;42.692;23.314;2023-04-01T15:18:44;8.00;;;4.43;;
24277;SDS011;12394;42.692;23.314;2023-04-01T15:29:27;5.13;;;3.67;;
24277;SDS011;12394;42.692;23.314;2023-04-01T15:47:38;9.67;;;4.33;;
24277;SDS011;12394;42.692;23.314;2023-04-01T15:52:56;6.27;;;1.80;;
24277;SDS011;12394;42.692;23.314;2023-04-01T15:55:38;3.17;;;2.27;;
24277;SDS011;12394;42.692;23.314;2023-04-01T16:06:25;4.57;;;3.80;;
24277;SDS011;12394;42.692;23.314;2023-04-01T16:19:37;4.37;;;3.70;;
24277;SDS011;12394;42.692;23.314;2023-04-01T16:22:13;5.73;;;3.70;;
24277;SDS011;12394;42.692;23.314;2023-04-01T16:24:53;5.77;;;3.43;;
24277;SDS011;12394;42.692;23.314;2023-04-01T16:27:47;4.73;;;3.50;;
24277;SDS011;12394;42.692;23.314;2023-04-01T16:35:57;4.43;;;3.70;;
24277;SDS011;12394;42.692;23.314;2023-04-01T16:38:33;5.17;;;4.17;;
24277;SDS011;12394;42.692;23.314;2023-04-01T16:43:56;4.23;;;3.63;;
24277;SDS011;12394;42.692;23.314;2023-04-01T16:46:38;4.37;;;3.70;;
24277;SDS011;12394;42.692;23.314;2023-04-01T16:57:28;3.83;;;3.43;;
24277;SDS011;12394;42.692;23.314;2023-04-01T17:00:03;4.47;;;3.40;;
24277;SDS011;12394;42.692;23.314;2023-04-01T17:02:38;4.37;;;3.70;;
24277;SDS011;12394;42.692;23.314;2023-04-01T17:05:36;3.63;;;3.10;;
24277;SDS011;12394;42.692;23.314;2023-04-01T17:08:13;4.10;;;2.83;;
24277;SDS011;12394;42.692;23.314;2023-04-01T17:27:52;2.73;;;2.40;;
24277;SDS011;12394;42.692;23.314;2023-04-01T17:51:53;5.07;;;3.77;;
24277;SDS011;12394;42.692;23.314;2023-04-01T17:55:15;4.93;;;3.90;;
24277;SDS011;12394;42.692;23.314;2023-04-01T17:58:21;4.27;;;3.33;;
24277;SDS011;12394;42.692;23.314;2023-04-01T18:03:44;3.70;;;3.40;;
24277;SDS011;12394;42.692;23.314;2023-04-01T18:20:30;2.90;;;2.63;;
24277;SDS011;12394;42.692;23.314;2023-04-01T18:23:04;3.37;;;3.07;;
24277;SDS011;12394;42.692;23.314;2023-04-01T18:25:47;3.03;;;2.53;;
24277;SDS011;12394;42.692;23.314;2023-04-01T18:33:48;3.27;;;2.43;;
24277;SDS011;12394;42.692;23.314;2023-04-01T18:39:03;4.87;;;3.20;;
24277;SDS011;12394;42.692;23.314;2023-04-01T18:41:38;3.80;;;3.07;;
24277;SDS011;12394;42.692;23.314;2023-04-01T18:44:29;3.80;;;3.40;;
24277;SDS011;12394;42.692;23.314;2023-04-01T18:47:15;5.90;;;3.37;;
24277;SDS011;12394;42.692;23.314;2023-04-01T18:52:42;3.70;;;2.90;;
24277;SDS011;12394;42.692;23.314;2023-04-01T18:57:54;2.97;;;2.63;;
24277;SDS011;12394;42.692;23.314;2023-04-01T19:00:38;2.80;;;2.60;;
24277;SDS011;12394;42.692;23.314;2023-04-01T19:05:45;3.33;;;2.50;;
24277;SDS011;12394;42.692;23.314;2023-04-01T19:08:30;4.93;;;2.40;;
24277;SDS011;12394;42.692;23.314;2023-04-01T19:11:09;2.87;;;2.60;;
24277;SDS011;12394;42.692;23.314;2023-04-01T19:16:49;2.87;;;2.33;;
24277;SDS011;12394;42.692;23.314;2023-04-01T19:19:29;2.63;;;2.20;;
24277;SDS011;12394;42.692;23.314;2023-04-01T19:22:26;5.30;;;2.20;;
24277;SDS011;12394;42.692;23.314;2023-04-01T19:31:13;4.80;;;3.00;;
24277;SDS011;12394;42.692;23.314;2023-04-01T19:46:43;5.10;;;2.70;;
24277;SDS011;12394;42.692;23.314;2023-04-01T20:03:11;2.90;;;2.23;;
24277;SDS011;12394;42.692;23.314;2023-04-01T20:06:22;3.47;;;2.03;;
24277;SDS011;12394;42.692;23.314;2023-04-01T20:14:38;4.97;;;1.93;;
24277;SDS011;12394;42.692;23.314;2023-04-01T20:17:20;3.00;;;2.70;;
24277;SDS011;12394;42.692;23.314;2023-04-01T20:25:24;6.00;;;3.17;;
24277;SDS011;12394;42.692;23.314;2023-04-01T20:28:02;5.53;;;3.57;;
24277;SDS011;12394;42.692;23.314;2023-04-01T20:30:46;6.70;;;3.40;;
24277;SDS011;12394;42.692;23.314;2023-04-01T20:44:50;2.33;;;2.13;;
24277;SDS011;12394;42.692;23.314;2023-04-01T20:50:28;2.63;;;2.10;;
24277;SDS011;12394;42.692;23.314;2023-04-01T20:53:15;4.50;;;2.20;;
24277;SDS011;12394;42.692;23.314;2023-04-01T20:58:24;3.60;;;2.30;;
24277;SDS011;12394;42.692;23.314;2023-04-01T21:17:55;2.27;;;2.07;;
24277;SDS011;12394;42.692;23.314;2023-04-01T21:20:34;2.10;;;1.77;;
24277;SDS011;12394;42.692;23.314;2023-04-01T21:28:35;1.73;;;1.53;;
24277;SDS011;12394;42.692;23.314;2023-04-01T21:36:44;3.67;;;1.87;;
24277;SDS011;12394;42.692;23.314;2023-04-01T21:39:51;4.07;;;1.70;;
24277;SDS011;12394;42.692;23.314;2023-04-01T21:51:35;1.77;;;1.43;;
24277;SDS011;12394;42.692;23.314;2023-04-01T22:07:20;1.70;;;1.60;;
24277;SDS011;12394;42.692;23.314;2023-04-01T22:15:26;1.83;;;1.67;;
24277;SDS011;12394;42.692;23.314;2023-04-01T22:20:33;2.73;;;1.70;;
24277;SDS011;12394;42.692;23.314;2023-04-01T22:37:31;4.83;;;1.80;;
24277;SDS011;12394;42.692;23.314;2023-04-01T22:40:12;1.83;;;1.63;;
24277;SDS011;12394;42.692;23.314;2023-04-01T22:42:47;3.20;;;1.63;;
24277;SDS011;12394;42.692;23.314;2023-04-01T22:55:38;4.70;;;1.60;;
24277;SDS011;12394;42.692;23.314;2023-04-01T22:58:08;1.53;;;1.20;;
24277;SDS011;12394;42.692;23.314;2023-04-01T23:00:52;1.83;;;1.20;;
24277;SDS011;12394;42.692;23.314;2023-04-01T23:03:28;1.53;;;1.37;;
24277;SDS011;12394;42.692;23.314;2023-04-01T23:06:02;2.33;;;1.43;;
24277;SDS011;12394;42.692;23.314;2023-04-01T23:11:20;3.83;;;1.40;;
24277;SDS011;12394;42.692;23.314;2023-04-01T23:13:52;2.60;;;1.37;;
24277;SDS011;12394;42.692;23.314;2023-04-01T23:16:31;1.40;;;1.27;;
24277;SDS011;12394;42.692;23.314;2023-04-01T23:19:10;3.87;;;2.20;;
24277;SDS011;12394;42.692;23.314;2023-04-01T23:21:43;2.63;;;1.77;;
24277;SDS011;12394;42.692;23.314;2023-04-01T23:27:23;2.73;;;1.33;;
24277;SDS011;12394;42.692;23.314;2023-04-01T23:29:56;2.37;;;1.77;;
24277;SDS011;12394;42.692;23.314;2023-04-01T23:32:24;3.00;;;1.27;;
24277;SDS011;12394;42.692;23.314;2023-04-01T23:34:52;3.60;;;1.43;;
24277;SDS011;12394;42.692;23.314;2023-04-01T23:37:20;1.53;;;1.20;;
24277;SDS011;12394;42.692;23.314;2023-04-01T23:39:50;1.87;;;1.23;;
24277;SDS011;12394;42.692;23.314;2023-04-01T23:42:19;2.10;;;1.50;;
24277;SDS011;12394;42.692;23.314;2023-04-01T23:44:55;2.60;;;1.20;;
24277;SDS011;12394;42.692;23.314;2023-04-01T23:47:32;7.80;;;1.10;;
24277;SDS011;12394;42.692;23.314;2023-04-01T23:50:04;1.10;;;1.00;;
24277;SDS011;12394;42.692;23.314;2023-04-01T23:52:40;3.77;;;1.00;;
24277;SDS011;12394;42.692;23.314;2023-04-01T23:57:35;1.53;;;1.00;;
